sensor_id;sensor_type;location;lat;lon;timestamp;pressure;altitude;pressure_sealevel;temperature;humidity
45872;BME280;32333;55.844;-3.210;2023-05-17T00:01:53;100616.45;;;10.01;100.00
45872;BME280;32333;55.844;-3.210;2023-05-17T00:04:21;100618.08;;;10.30;100.00
45872;BME280;32333;55.844;-3.210;2023-05-17T00:06:49;100620.94;;;9.67;100.00
45872;BME280;32333;55.844;-3.210;2023-05-17T00:09:16;100623.14;;;10.27;100.00
45872;BME280;32333;55.844;-3.210;2023-05-17T00:11:43;100623.86;;;10.64;100.00
45872;BME280;32333;55.844;-3.210;2023-05-17T00:14:36;100628.00;;;9.33;100.00
45872;BME280;32333;55.844;-3.210;2023-05-17T00:17:07;100626.08;;;9.61;100.00
45872;BME280;32333;55.844;-3.210;2023-05-17T00:19:35;100625.64;;;11.32;100.00
45872;BME280;32333;55.844;-3.210;2023-05-17T00:22:03;100628.82;;;10.31;100.00
45872;BME280;32333;55.844;-3.210;2023-05-17T00:24:31;100627.78;;;10.15;100.00
45872;BME280;32333;55.844;-3.210;2023-05-17T00:26:59;100628.40;;;11.52;100.00
45872;BME280;32333;55.844;-3.210;2023-05-17T00:29:27;100623.58;;;10.40;100.00
45872;BME280;32333;55.844;-3.210;2023-05-17T00:31:55;100622.89;;;9.75;100.00
45872;BME280;32333;55.844;-3.210;2023-05-17T00:34:23;100621.84;;;10.04;100.00
45872;BME280;32333;55.844;-3.210;2023-05-17T00:36:51;100621.08;;;9.85;100.00
45872;BME280;32333;55.844;-3.210;2023-05-17T00:39:18;100621.69;;;10.00;100.00
45872;BME280;32333;55.844;-3.210;2023-05-17T00:41:47;100623.05;;;9.86;100.00
45872;BME280;32333;55.844;-3.210;2023-05-17T00:44:35;100628.13;;;9.24;100.00
45872;BME280;32333;55.844;-3.210;2023-05-17T00:47:03;100630.22;;;9.53;100.00
45872;BME280;32333;55.844;-3.210;2023-05-17T00:49:32;100619.90;;;10.17;100.00
45872;BME280;32333;55.844;-3.210;2023-05-17T00:52:00;100624.49;;;9.04;100.00
45872;BME280;32333;55.844;-3.210;2023-05-17T00:54:27;100621.56;;;9.09;100.00
45872;BME280;32333;55.844;-3.210;2023-05-17T00:56:58;100620.15;;;10.25;100.00
45872;BME280;32333;55.844;-3.210;2023-05-17T00:59:27;100621.23;;;10.39;100.00
45872;BME280;32333;55.844;-3.210;2023-05-17T01:01:57;100622.07;;;10.88;100.00
45872;BME280;32333;55.844;-3.210;2023-05-17T01:04:26;100625.70;;;9.35;100.00
45872;BME280;32333;55.844;-3.210;2023-05-17T01:06:53;100627.40;;;9.56;100.00
45872;BME280;32333;55.844;-3.210;2023-05-17T01:09:26;100625.22;;;9.62;100.00
45872;BME280;32333;55.844;-3.210;2023-05-17T01:14:44;100631.95;;;10.19;100.00
45872;BME280;32333;55.844;-3.210;2023-05-17T01:17:16;100629.39;;;9.57;100.00
45872;BME280;32333;55.844;-3.210;2023-05-17T01:19:58;100625.48;;;9.95;100.00
45872;BME280;32333;55.844;-3.210;2023-05-17T01:22:37;100634.28;;;9.51;100.00
45872;BME280;32333;55.844;-3.210;2023-05-17T01:25:14;100631.16;;;9.56;100.00
45872;BME280;32333;55.844;-3.210;2023-05-17T01:27:47;100631.24;;;9.81;100.00
45872;BME280;32333;55.844;-3.210;2023-05-17T01:30:15;100632.94;;;9.21;100.00
45872;BME280;32333;55.844;-3.210;2023-05-17T01:32:47;100634.50;;;9.28;100.00
45872;BME280;32333;55.844;-3.210;2023-05-17T01:35:14;100629.46;;;7.82;100.00
45872;BME280;32333;55.844;-3.210;2023-05-17T01:37:43;100634.54;;;9.23;100.00
45872;BME280;32333;55.844;-3.210;2023-05-17T01:40:12;100640.21;;;9.53;100.00
45872;BME280;32333;55.844;-3.210;2023-05-17T01:44:40;100639.75;;;9.59;100.00
45872;BME280;32333;55.844;-3.210;2023-05-17T01:47:14;100632.82;;;8.37;100.00
45872;BME280;32333;55.844;-3.210;2023-05-17T01:49:47;100626.11;;;9.22;100.00
45872;BME280;32333;55.844;-3.210;2023-05-17T01:52:28;100625.62;;;8.62;100.00
45872;BME280;32333;55.844;-3.210;2023-05-17T01:55:02;100628.51;;;8.49;100.00
45872;BME280;32333;55.844;-3.210;2023-05-17T01:57:34;100629.13;;;8.18;100.00
45872;BME280;32333;55.844;-3.210;2023-05-17T02:00:05;100632.79;;;8.52;100.00
45872;BME280;32333;55.844;-3.210;2023-05-17T02:02:33;100636.07;;;7.50;100.00
45872;BME280;32333;55.844;-3.210;2023-05-17T02:05:01;100631.06;;;7.94;100.00
45872;BME280;32333;55.844;-3.210;2023-05-17T02:07:29;100633.54;;;8.90;100.00
45872;BME280;32333;55.844;-3.210;2023-05-17T02:10:07;100640.30;;;9.03;100.00
45872;BME280;32333;55.844;-3.210;2023-05-17T02:14:36;100634.85;;;8.27;100.00
45872;BME280;32333;55.844;-3.210;2023-05-17T02:17:03;100634.38;;;9.11;100.00
45872;BME280;32333;55.844;-3.210;2023-05-17T02:19:31;100630.05;;;9.27;100.00
45872;BME280;32333;55.844;-3.210;2023-05-17T02:21:59;100628.12;;;9.95;100.00
45872;BME280;32333;55.844;-3.210;2023-05-17T02:24:26;100630.68;;;9.29;100.00
45872;BME280;32333;55.844;-3.210;2023-05-17T02:26:54;100631.88;;;8.67;100.00
45872;BME280;32333;55.844;-3.210;2023-05-17T02:29:59;100630.22;;;9.98;100.00
45872;BME280;32333;55.844;-3.210;2023-05-17T02:32:26;100634.31;;;9.87;100.00
45872;BME280;32333;55.844;-3.210;2023-05-17T02:34:54;100636.35;;;9.17;100.00
45872;BME280;32333;55.844;-3.210;2023-05-17T02:37:22;100631.85;;;9.78;100.00
45872;BME280;32333;55.844;-3.210;2023-05-17T02:39:50;100633.74;;;9.97;100.00
45872;BME280;32333;55.844;-3.210;2023-05-17T02:44:36;100638.92;;;10.31;100.00
45872;BME280;32333;55.844;-3.210;2023-05-17T02:47:04;100637.15;;;10.39;100.00
45872;BME280;32333;55.844;-3.210;2023-05-17T02:49:31;100642.24;;;9.57;100.00
45872;BME280;32333;55.844;-3.210;2023-05-17T02:52:00;100637.77;;;10.39;100.00
45872;BME280;32333;55.844;-3.210;2023-05-17T02:54:28;100633.98;;;9.83;100.00
45872;BME280;32333;55.844;-3.210;2023-05-17T02:56:55;100632.84;;;10.02;100.00
45872;BME280;32333;55.844;-3.210;2023-05-17T02:59:23;100629.88;;;10.24;100.00
45872;BME280;32333;55.844;-3.210;2023-05-17T03:01:51;100627.42;;;9.71;100.00
45872;BME280;32333;55.844;-3.210;2023-05-17T03:04:18;100628.04;;;10.23;100.00
45872;BME280;32333;55.844;-3.210;2023-05-17T03:06:46;100633.07;;;9.15;100.00
45872;BME280;32333;55.844;-3.210;2023-05-17T03:09:13;100635.01;;;10.07;100.00
45872;BME280;32333;55.844;-3.210;2023-05-17T03:11:40;100638.59;;;9.56;100.00
45872;BME280;32333;55.844;-3.210;2023-05-17T03:14:35;100638.37;;;9.20;100.00
45872;BME280;32333;55.844;-3.210;2023-05-17T03:17:03;100629.28;;;9.74;100.00
45872;BME280;32333;55.844;-3.210;2023-05-17T03:19:30;100622.22;;;9.97;100.00
45872;BME280;32333;55.844;-3.210;2023-05-17T03:21:59;100616.18;;;9.75;100.00
45872;BME280;32333;55.844;-3.210;2023-05-17T03:24:26;100621.54;;;9.30;100.00
45872;BME280;32333;55.844;-3.210;2023-05-17T03:26:53;100618.80;;;9.86;100.00
45872;BME280;32333;55.844;-3.210;2023-05-17T03:29:21;100620.58;;;7.57;100.00
45872;BME280;32333;55.844;-3.210;2023-05-17T03:31:48;100624.92;;;9.02;100.00
45872;BME280;32333;55.844;-3.210;2023-05-17T03:34:15;100625.20;;;8.47;100.00
45872;BME280;32333;55.844;-3.210;2023-05-17T03:36:43;100620.59;;;9.70;100.00
45872;BME280;32333;55.844;-3.210;2023-05-17T03:39:11;100618.93;;;9.69;100.00
45872;BME280;32333;55.844;-3.210;2023-05-17T03:41:38;100622.42;;;8.52;100.00
45872;BME280;32333;55.844;-3.210;2023-05-17T03:44:36;100623.97;;;9.77;100.00
45872;BME280;32333;55.844;-3.210;2023-05-17T03:47:03;100633.09;;;8.85;100.00
45872;BME280;32333;55.844;-3.210;2023-05-17T03:49:30;100634.59;;;9.78;100.00
45872;BME280;32333;55.844;-3.210;2023-05-17T03:51:57;100633.45;;;10.73;100.00
45872;BME280;32333;55.844;-3.210;2023-05-17T03:54:25;100637.85;;;9.65;100.00
45872;BME280;32333;55.844;-3.210;2023-05-17T03:56:52;100637.48;;;9.44;100.00
45872;BME280;32333;55.844;-3.210;2023-05-17T03:59:20;100637.65;;;9.10;100.00
45872;BME280;32333;55.844;-3.210;2023-05-17T04:01:48;100630.26;;;9.91;100.00
45872;BME280;32333;55.844;-3.210;2023-05-17T04:04:15;100633.74;;;8.60;100.00
45872;BME280;32333;55.844;-3.210;2023-05-17T04:06:43;100633.78;;;9.34;100.00
45872;BME280;32333;55.844;-3.210;2023-05-17T04:09:10;100629.74;;;9.76;100.00
45872;BME280;32333;55.844;-3.210;2023-05-17T04:11:37;100637.20;;;9.87;100.00
45872;BME280;32333;55.844;-3.210;2023-05-17T04:14:35;100635.21;;;9.70;100.00
45872;BME280;32333;55.844;-3.210;2023-05-17T04:17:02;100632.35;;;9.99;100.00
45872;BME280;32333;55.844;-3.210;2023-05-17T04:19:30;100635.53;;;9.48;100.00
45872;BME280;32333;55.844;-3.210;2023-05-17T04:21:58;100630.77;;;9.72;100.00
45872;BME280;32333;55.844;-3.210;2023-05-17T04:24:25;100632.78;;;9.13;100.00
45872;BME280;32333;55.844;-3.210;2023-05-17T04:26:52;100626.30;;;9.15;100.00
45872;BME280;32333;55.844;-3.210;2023-05-17T04:29:20;100627.73;;;9.22;100.00
45872;BME280;32333;55.844;-3.210;2023-05-17T04:31:48;100625.11;;;9.56;100.00
45872;BME280;32333;55.844;-3.210;2023-05-17T04:34:16;100621.47;;;10.04;100.00
45872;BME280;32333;55.844;-3.210;2023-05-17T04:36:44;100626.62;;;9.08;100.00
45872;BME280;32333;55.844;-3.210;2023-05-17T04:39:12;100629.38;;;9.41;100.00
45872;BME280;32333;55.844;-3.210;2023-05-17T04:41:39;100630.34;;;9.23;100.00
45872;BME280;32333;55.844;-3.210;2023-05-17T04:44:36;100633.01;;;9.63;100.00
45872;BME280;32333;55.844;-3.210;2023-05-17T04:47:03;100631.75;;;8.44;100.00
45872;BME280;32333;55.844;-3.210;2023-05-17T04:49:30;100625.78;;;10.13;100.00
45872;BME280;32333;55.844;-3.210;2023-05-17T04:51:59;100627.44;;;9.76;100.00
45872;BME280;32333;55.844;-3.210;2023-05-17T04:54:26;100631.55;;;9.78;100.00
45872;BME280;32333;55.844;-3.210;2023-05-17T04:56:53;100639.60;;;9.30;100.00
45872;BME280;32333;55.844;-3.210;2023-05-17T04:59:21;100643.12;;;9.92;100.00
45872;BME280;32333;55.844;-3.210;2023-05-17T05:01:50;100648.64;;;8.82;100.00
45872;BME280;32333;55.844;-3.210;2023-05-17T05:04:17;100652.20;;;9.21;100.00
45872;BME280;32333;55.844;-3.210;2023-05-17T05:06:44;100655.69;;;7.92;100.00
45872;BME280;32333;55.844;-3.210;2023-05-17T05:09:13;100663.54;;;8.17;100.00
45872;BME280;32333;55.844;-3.210;2023-05-17T05:11:41;100665.12;;;8.98;100.00
45872;BME280;32333;55.844;-3.210;2023-05-17T05:14:36;100664.56;;;8.57;100.00
45872;BME280;32333;55.844;-3.210;2023-05-17T05:17:04;100662.82;;;9.01;100.00
45872;BME280;32333;55.844;-3.210;2023-05-17T05:19:31;100665.30;;;9.43;100.00
45872;BME280;32333;55.844;-3.210;2023-05-17T05:21:58;100666.28;;;8.87;100.00
45872;BME280;32333;55.844;-3.210;2023-05-17T05:24:26;100671.48;;;9.17;100.00
45872;BME280;32333;55.844;-3.210;2023-05-17T05:26:54;100672.22;;;8.85;100.00
45872;BME280;32333;55.844;-3.210;2023-05-17T05:29:22;100675.80;;;9.31;100.00
45872;BME280;32333;55.844;-3.210;2023-05-17T05:31:49;100677.40;;;9.16;100.00
45872;BME280;32333;55.844;-3.210;2023-05-17T05:34:16;100678.35;;;9.18;100.00
45872;BME280;32333;55.844;-3.210;2023-05-17T05:36:44;100685.63;;;8.69;100.00
45872;BME280;32333;55.844;-3.210;2023-05-17T05:39:11;100687.52;;;9.71;100.00
45872;BME280;32333;55.844;-3.210;2023-05-17T05:41:39;100685.16;;;9.72;100.00
45872;BME280;32333;55.844;-3.210;2023-05-17T05:44:36;100686.13;;;9.82;100.00
45872;BME280;32333;55.844;-3.210;2023-05-17T05:47:03;100686.94;;;9.21;100.00
45872;BME280;32333;55.844;-3.210;2023-05-17T05:49:31;100691.94;;;9.31;100.00
45872;BME280;32333;55.844;-3.210;2023-05-17T05:51:59;100695.44;;;9.60;100.00
45872;BME280;32333;55.844;-3.210;2023-05-17T05:54:27;100695.09;;;9.79;100.00
45872;BME280;32333;55.844;-3.210;2023-05-17T05:56:54;100689.99;;;10.35;100.00
45872;BME280;32333;55.844;-3.210;2023-05-17T05:59:23;100693.28;;;9.24;100.00
45872;BME280;32333;55.844;-3.210;2023-05-17T06:01:51;100699.76;;;9.45;100.00
45872;BME280;32333;55.844;-3.210;2023-05-17T06:04:18;100690.36;;;9.95;100.00
45872;BME280;32333;55.844;-3.210;2023-05-17T06:06:48;100690.14;;;9.05;100.00
45872;BME280;32333;55.844;-3.210;2023-05-17T06:09:15;100686.42;;;10.30;100.00
45872;BME280;32333;55.844;-3.210;2023-05-17T06:11:43;100698.05;;;9.60;100.00
45872;BME280;32333;55.844;-3.210;2023-05-17T06:14:36;100697.95;;;9.74;100.00
45872;BME280;32333;55.844;-3.210;2023-05-17T06:17:04;100699.09;;;9.58;100.00
45872;BME280;32333;55.844;-3.210;2023-05-17T06:19:31;100703.52;;;9.38;100.00
45872;BME280;32333;55.844;-3.210;2023-05-17T06:22:00;100705.10;;;10.21;100.00
45872;BME280;32333;55.844;-3.210;2023-05-17T06:24:27;100703.83;;;10.64;100.00
45872;BME280;32333;55.844;-3.210;2023-05-17T06:26:54;100703.81;;;10.81;100.00
45872;BME280;32333;55.844;-3.210;2023-05-17T06:29:23;100716.89;;;10.52;100.00
45872;BME280;32333;55.844;-3.210;2023-05-17T06:31:50;100718.29;;;10.58;100.00
45872;BME280;32333;55.844;-3.210;2023-05-17T06:34:17;100717.91;;;10.66;100.00
45872;BME280;32333;55.844;-3.210;2023-05-17T06:36:45;100720.66;;;11.39;100.00
45872;BME280;32333;55.844;-3.210;2023-05-17T06:39:12;100716.26;;;12.47;100.00
45872;BME280;32333;55.844;-3.210;2023-05-17T06:41:39;100715.00;;;10.99;100.00
45872;BME280;32333;55.844;-3.210;2023-05-17T06:44:36;100715.09;;;11.77;100.00
45872;BME280;32333;55.844;-3.210;2023-05-17T06:47:03;100715.48;;;12.04;100.00
45872;BME280;32333;55.844;-3.210;2023-05-17T06:49:31;100717.15;;;12.06;100.00
45872;BME280;32333;55.844;-3.210;2023-05-17T06:51:59;100720.86;;;11.58;100.00
45872;BME280;32333;55.844;-3.210;2023-05-17T06:54:26;100723.65;;;11.45;100.00
45872;BME280;32333;55.844;-3.210;2023-05-17T06:56:54;100722.41;;;10.97;100.00
45872;BME280;32333;55.844;-3.210;2023-05-17T06:59:22;100721.09;;;11.13;100.00
45872;BME280;32333;55.844;-3.210;2023-05-17T07:01:49;100716.59;;;11.09;100.00
45872;BME280;32333;55.844;-3.210;2023-05-17T07:04:16;100710.44;;;11.42;100.00
45872;BME280;32333;55.844;-3.210;2023-05-17T07:06:44;100709.47;;;11.30;100.00
45872;BME280;32333;55.844;-3.210;2023-05-17T07:09:11;100706.79;;;12.30;100.00
45872;BME280;32333;55.844;-3.210;2023-05-17T07:11:38;100709.23;;;12.27;100.00
45872;BME280;32333;55.844;-3.210;2023-05-17T07:14:34;100715.94;;;11.30;100.00
45872;BME280;32333;55.844;-3.210;2023-05-17T07:17:02;100716.82;;;12.24;100.00
45872;BME280;32333;55.844;-3.210;2023-05-17T07:19:31;100718.72;;;11.60;100.00
45872;BME280;32333;55.844;-3.210;2023-05-17T07:21:58;100717.26;;;11.20;100.00
45872;BME280;32333;55.844;-3.210;2023-05-17T07:24:25;100713.83;;;13.15;100.00
45872;BME280;32333;55.844;-3.210;2023-05-17T07:26:54;100711.27;;;12.68;100.00
45872;BME280;32333;55.844;-3.210;2023-05-17T07:29:21;100709.18;;;12.84;100.00
45872;BME280;32333;55.844;-3.210;2023-05-17T07:31:48;100710.19;;;13.07;100.00
45872;BME280;32333;55.844;-3.210;2023-05-17T07:34:15;100708.35;;;13.36;100.00
45872;BME280;32333;55.844;-3.210;2023-05-17T07:36:42;100708.29;;;13.98;100.00
45872;BME280;32333;55.844;-3.210;2023-05-17T07:39:12;100705.66;;;13.57;100.00
45872;BME280;32333;55.844;-3.210;2023-05-17T07:41:40;100708.83;;;13.92;100.00
45872;BME280;32333;55.844;-3.210;2023-05-17T07:44:35;100710.57;;;14.16;100.00
45872;BME280;32333;55.844;-3.210;2023-05-17T07:47:02;100714.47;;;13.64;100.00
45872;BME280;32333;55.844;-3.210;2023-05-17T07:49:30;100717.05;;;13.92;100.00
45872;BME280;32333;55.844;-3.210;2023-05-17T07:51:58;100714.86;;;13.69;100.00
45872;BME280;32333;55.844;-3.210;2023-05-17T07:54:26;100709.85;;;14.83;98.99
45872;BME280;32333;55.844;-3.210;2023-05-17T07:56:53;100717.98;;;14.38;100.00
45872;BME280;32333;55.844;-3.210;2023-05-17T07:59:21;100710.57;;;14.73;97.00
45872;BME280;32333;55.844;-3.210;2023-05-17T08:01:50;100709.86;;;14.50;100.00
45872;BME280;32333;55.844;-3.210;2023-05-17T08:04:19;100709.95;;;14.55;92.53
45872;BME280;32333;55.844;-3.210;2023-05-17T08:06:46;100708.16;;;14.66;94.57
45872;BME280;32333;55.844;-3.210;2023-05-17T08:09:13;100709.44;;;14.32;95.93
45872;BME280;32333;55.844;-3.210;2023-05-17T08:11:40;100711.35;;;15.37;91.99
45872;BME280;32333;55.844;-3.210;2023-05-17T08:14:35;100709.04;;;14.22;95.13
45872;BME280;32333;55.844;-3.210;2023-05-17T08:17:02;100705.42;;;16.40;84.00
45872;BME280;32333;55.844;-3.210;2023-05-17T08:19:30;100701.93;;;14.68;92.88
45872;BME280;32333;55.844;-3.210;2023-05-17T08:21:58;100694.40;;;15.52;94.25
45872;BME280;32333;55.844;-3.210;2023-05-17T08:24:25;100706.06;;;15.53;94.03
45872;BME280;32333;55.844;-3.210;2023-05-17T08:26:52;100704.51;;;16.51;86.46
45872;BME280;32333;55.844;-3.210;2023-05-17T08:29:21;100703.63;;;16.32;83.61
45872;BME280;32333;55.844;-3.210;2023-05-17T08:31:48;100705.29;;;15.60;87.19
45872;BME280;32333;55.844;-3.210;2023-05-17T08:34:16;100704.93;;;15.27;88.38
45872;BME280;32333;55.844;-3.210;2023-05-17T08:36:44;100706.56;;;15.96;77.93
45872;BME280;32333;55.844;-3.210;2023-05-17T08:39:11;100699.73;;;16.55;81.06
45872;BME280;32333;55.844;-3.210;2023-05-17T08:41:38;100703.01;;;16.45;77.25
45872;BME280;32333;55.844;-3.210;2023-05-17T08:44:35;100700.44;;;17.16;69.40
45872;BME280;32333;55.844;-3.210;2023-05-17T08:47:03;100702.74;;;17.22;71.18
45872;BME280;32333;55.844;-3.210;2023-05-17T08:49:33;100699.96;;;17.13;72.19
45872;BME280;32333;55.844;-3.210;2023-05-17T08:52:02;100709.46;;;15.27;78.14
45872;BME280;32333;55.844;-3.210;2023-05-17T08:54:29;100705.22;;;17.06;72.45
45872;BME280;32333;55.844;-3.210;2023-05-17T08:56:58;100709.28;;;15.66;74.45
45872;BME280;32333;55.844;-3.210;2023-05-17T08:59:26;100708.76;;;15.76;71.06
45872;BME280;32333;55.844;-3.210;2023-05-17T09:01:55;100704.57;;;16.35;70.41
45872;BME280;32333;55.844;-3.210;2023-05-17T09:04:23;100704.55;;;16.11;74.77
45872;BME280;32333;55.844;-3.210;2023-05-17T09:06:51;100705.76;;;17.11;74.12
45872;BME280;32333;55.844;-3.210;2023-05-17T09:09:19;100706.21;;;15.56;76.96
45872;BME280;32333;55.844;-3.210;2023-05-17T09:11:47;100707.63;;;15.40;80.57
45872;BME280;32333;55.844;-3.210;2023-05-17T09:14:36;100710.84;;;17.29;70.52
45872;BME280;32333;55.844;-3.210;2023-05-17T09:17:05;100712.01;;;16.54;72.68
45872;BME280;32333;55.844;-3.210;2023-05-17T09:19:42;100710.13;;;18.10;68.45
45872;BME280;32333;55.844;-3.210;2023-05-17T09:22:12;100708.67;;;16.91;73.59
45872;BME280;32333;55.844;-3.210;2023-05-17T09:24:40;100702.42;;;17.22;71.24
45872;BME280;32333;55.844;-3.210;2023-05-17T09:27:08;100706.81;;;17.05;70.10
45872;BME280;32333;55.844;-3.210;2023-05-17T09:29:38;100700.98;;;17.02;68.82
45872;BME280;32333;55.844;-3.210;2023-05-17T09:32:14;100704.00;;;16.38;69.36
45872;BME280;32333;55.844;-3.210;2023-05-17T09:34:42;100701.31;;;15.81;71.26
45872;BME280;32333;55.844;-3.210;2023-05-17T09:37:13;100700.34;;;16.53;68.82
45872;BME280;32333;55.844;-3.210;2023-05-17T09:39:41;100695.23;;;15.84;70.88
45872;BME280;32333;55.844;-3.210;2023-05-17T09:44:46;100690.13;;;16.68;71.11
45872;BME280;32333;55.844;-3.210;2023-05-17T09:47:22;100679.53;;;16.53;70.77
45872;BME280;32333;55.844;-3.210;2023-05-17T09:49:50;100678.14;;;17.41;69.04
45872;BME280;32333;55.844;-3.210;2023-05-17T09:52:19;100678.32;;;18.54;66.79
45872;BME280;32333;55.844;-3.210;2023-05-17T09:54:51;100679.22;;;16.10;74.85
45872;BME280;32333;55.844;-3.210;2023-05-17T09:57:19;100673.94;;;17.37;67.62
45872;BME280;32333;55.844;-3.210;2023-05-17T09:59:47;100677.26;;;17.31;67.09
45872;BME280;32333;55.844;-3.210;2023-05-17T10:02:19;100673.11;;;17.60;64.60
45872;BME280;32333;55.844;-3.210;2023-05-17T10:04:49;100669.17;;;18.65;61.75
45872;BME280;32333;55.844;-3.210;2023-05-17T10:07:18;100664.94;;;19.34;55.88
45872;BME280;32333;55.844;-3.210;2023-05-17T10:09:47;100670.04;;;17.83;54.87
45872;BME280;32333;55.844;-3.210;2023-05-17T10:14:35;100667.44;;;19.69;55.54
45872;BME280;32333;55.844;-3.210;2023-05-17T10:17:04;100668.30;;;20.33;50.18
45872;BME280;32333;55.844;-3.210;2023-05-17T10:19:33;100665.88;;;20.24;51.23
45872;BME280;32333;55.844;-3.210;2023-05-17T10:22:01;100662.50;;;19.76;49.98
45872;BME280;32333;55.844;-3.210;2023-05-17T10:24:29;100659.67;;;19.33;50.52
45872;BME280;32333;55.844;-3.210;2023-05-17T10:26:57;100652.48;;;21.31;49.11
45872;BME280;32333;55.844;-3.210;2023-05-17T10:29:26;100654.33;;;19.55;50.86
45872;BME280;32333;55.844;-3.210;2023-05-17T10:31:55;100647.07;;;18.90;50.84
45872;BME280;32333;55.844;-3.210;2023-05-17T10:34:23;100650.61;;;19.21;52.49
45872;BME280;32333;55.844;-3.210;2023-05-17T10:36:53;100656.77;;;18.17;53.56
45872;BME280;32333;55.844;-3.210;2023-05-17T10:39:21;100661.84;;;18.02;53.78
45872;BME280;32333;55.844;-3.210;2023-05-17T10:41:52;100651.45;;;16.99;53.90
45872;BME280;32333;55.844;-3.210;2023-05-17T10:44:35;100644.74;;;17.83;54.29
45872;BME280;32333;55.844;-3.210;2023-05-17T10:47:03;100645.43;;;17.86;55.90
45872;BME280;32333;55.844;-3.210;2023-05-17T10:49:32;100644.26;;;16.64;61.02
45872;BME280;32333;55.844;-3.210;2023-05-17T10:52:11;100636.52;;;17.21;56.58
45872;BME280;32333;55.844;-3.210;2023-05-17T10:54:41;100645.65;;;16.89;53.46
45872;BME280;32333;55.844;-3.210;2023-05-17T10:57:18;100645.65;;;17.78;52.11
45872;BME280;32333;55.844;-3.210;2023-05-17T11:00:02;100638.73;;;19.27;50.17
45872;BME280;32333;55.844;-3.210;2023-05-17T11:02:30;100637.12;;;19.16;45.91
45872;BME280;32333;55.844;-3.210;2023-05-17T11:04:58;100641.06;;;17.96;49.67
45872;BME280;32333;55.844;-3.210;2023-05-17T11:07:27;100640.46;;;18.41;48.55
45872;BME280;32333;55.844;-3.210;2023-05-17T11:10:03;100645.49;;;17.69;47.64
45872;BME280;32333;55.844;-3.210;2023-05-17T11:14:58;100639.29;;;20.21;46.06
45872;BME280;32333;55.844;-3.210;2023-05-17T11:17:26;100635.46;;;18.79;48.84
45872;BME280;32333;55.844;-3.210;2023-05-17T11:19:55;100636.37;;;19.62;45.93
45872;BME280;32333;55.844;-3.210;2023-05-17T11:22:33;100635.21;;;19.43;47.74
45872;BME280;32333;55.844;-3.210;2023-05-17T11:25:06;100627.25;;;18.73;47.52
45872;BME280;32333;55.844;-3.210;2023-05-17T11:27:37;100630.23;;;19.48;47.77
45872;BME280;32333;55.844;-3.210;2023-05-17T11:30:20;100624.27;;;19.46;44.26
45872;BME280;32333;55.844;-3.210;2023-05-17T11:32:50;100622.86;;;18.67;46.53
45872;BME280;32333;55.844;-3.210;2023-05-17T11:35:26;100621.04;;;19.68;44.91
45872;BME280;32333;55.844;-3.210;2023-05-17T11:38:11;100620.78;;;18.24;43.65
45872;BME280;32333;55.844;-3.210;2023-05-17T11:40:39;100620.03;;;18.93;42.50
45872;BME280;32333;55.844;-3.210;2023-05-17T11:44:36;100625.55;;;19.85;42.22
45872;BME280;32333;55.844;-3.210;2023-05-17T11:47:05;100623.71;;;18.32;43.67
45872;BME280;32333;55.844;-3.210;2023-05-17T11:49:37;100617.96;;;18.41;41.54
45872;BME280;32333;55.844;-3.210;2023-05-17T11:52:06;100615.98;;;18.76;41.65
45872;BME280;32333;55.844;-3.210;2023-05-17T11:54:34;100618.58;;;20.05;40.01
45872;BME280;32333;55.844;-3.210;2023-05-17T11:57:04;100616.84;;;20.22;36.36
45872;BME280;32333;55.844;-3.210;2023-05-17T11:59:36;100617.06;;;18.47;38.83
45872;BME280;32333;55.844;-3.210;2023-05-17T12:02:05;100609.11;;;19.12;38.71
45872;BME280;32333;55.844;-3.210;2023-05-17T12:04:35;100607.74;;;19.29;37.61
45872;BME280;32333;55.844;-3.210;2023-05-17T12:07:07;100602.35;;;18.79;37.57
45872;BME280;32333;55.844;-3.210;2023-05-17T12:09:37;100601.19;;;19.19;37.36
45872;BME280;32333;55.844;-3.210;2023-05-17T12:14:35;100598.84;;;19.67;38.54
45872;BME280;32333;55.844;-3.210;2023-05-17T12:17:06;100600.57;;;19.60;37.97
45872;BME280;32333;55.844;-3.210;2023-05-17T12:19:34;100594.94;;;19.20;33.76
45872;BME280;32333;55.844;-3.210;2023-05-17T12:22:06;100596.76;;;18.46;36.30
45872;BME280;32333;55.844;-3.210;2023-05-17T12:24:37;100596.05;;;18.27;36.40
45872;BME280;32333;55.844;-3.210;2023-05-17T12:27:06;100594.45;;;19.14;36.80
45872;BME280;32333;55.844;-3.210;2023-05-17T12:29:34;100595.72;;;18.29;35.77
45872;BME280;32333;55.844;-3.210;2023-05-17T12:32:02;100598.70;;;18.40;33.82
45872;BME280;32333;55.844;-3.210;2023-05-17T12:34:30;100597.93;;;17.61;36.75
45872;BME280;32333;55.844;-3.210;2023-05-17T12:36:58;100595.71;;;19.13;35.53
45872;BME280;32333;55.844;-3.210;2023-05-17T12:39:28;100610.99;;;17.80;34.87
45872;BME280;32333;55.844;-3.210;2023-05-17T12:41:57;100609.70;;;18.05;34.65
45872;BME280;32333;55.844;-3.210;2023-05-17T12:44:35;100605.20;;;16.92;35.97
45872;BME280;32333;55.844;-3.210;2023-05-17T12:47:03;100610.62;;;18.21;37.45
45872;BME280;32333;55.844;-3.210;2023-05-17T12:49:36;100609.35;;;18.76;38.32
45872;BME280;32333;55.844;-3.210;2023-05-17T12:52:05;100613.79;;;17.95;38.03
45872;BME280;32333;55.844;-3.210;2023-05-17T12:54:32;100605.85;;;18.36;37.33
45872;BME280;32333;55.844;-3.210;2023-05-17T12:57:09;100602.85;;;18.18;37.08
45872;BME280;32333;55.844;-3.210;2023-05-17T12:59:45;100601.11;;;18.38;34.55
45872;BME280;32333;55.844;-3.210;2023-05-17T13:02:14;100599.97;;;18.86;34.63
45872;BME280;32333;55.844;-3.210;2023-05-17T13:04:42;100596.63;;;19.16;34.54
45872;BME280;32333;55.844;-3.210;2023-05-17T13:07:09;100600.03;;;18.66;36.10
45872;BME280;32333;55.844;-3.210;2023-05-17T13:09:45;100600.04;;;19.11;34.94
45872;BME280;32333;55.844;-3.210;2023-05-17T13:14:36;100603.99;;;19.83;35.02
45872;BME280;32333;55.844;-3.210;2023-05-17T13:17:06;100607.28;;;17.71;37.27